Time,TemperatureF,DewpointF,PressureIn,WindDirection,WindDirectionDegrees,WindSpeedMPH,WindSpeedGustMPH,Humidity,HourlyPrecipIn,Conditions,Clouds,dailyrainin,SoftwareType,DateUTC
2013-02-21 00:12:00,54.5,45.7,29.90,ESE,112,6.3,-999.0,72,-99.99,,,0.00,Acu-Link.com,2013-02-21 06:12:00,
2013-02-21 00:27:00,54.7,45.5,29.89,ESE,112,7.8,-999.0,71,-99.99,,,0.00,Acu-Link.com,2013-02-21 06:27:00,
2013-02-21 00:42:00,54.7,45.1,29.88,ESE,112,5.3,-999.0,70,-99.99,,,0.00,Acu-Link.com,2013-02-21 06:42:00,
2013-02-21 00:57:00,54.7,45.1,29.87,East,90,9.9,-999.0,70,-99.99,,,0.00,Acu-Link.com,2013-02-21 06:57:00,
2013-02-21 01:12:00,54.7,45.5,29.84,East,90,4.7,-999.0,71,-99.99,,,0.00,Acu-Link.com,2013-02-21 07:12:00,
2013-02-21 01:28:00,54.9,45.3,29.84,ESE,112,6.3,-999.0,70,-99.99,,,0.00,Acu-Link.com,2013-02-21 07:28:00,
2013-02-21 01:43:00,54.7,45.5,29.85,East,90,4.7,-999.0,71,-99.99,,,0.00,Acu-Link.com,2013-02-21 07:43:00,
2013-02-21 01:58:00,54.9,45.7,29.83,ESE,112,8.9,-999.0,71,-99.99,,,0.00,Acu-Link.com,2013-02-21 07:58:00,
2013-02-21 02:13:00,55.0,46.9,29.84,ESE,112,9.4,-999.0,74,-99.99,,,0.00,Acu-Link.com,2013-02-21 08:13:00,
2013-02-21 02:28:00,55.2,48.1,29.81,East,90,4.7,-999.0,77,-99.99,,,0.00,Acu-Link.com,2013-02-21 08:28:00,
2013-02-21 02:43:00,55.2,48.5,29.83,ESE,112,4.2,-999.0,78,-99.99,,,0.00,Acu-Link.com,2013-02-21 08:43:00,
2013-02-21 02:58:00,55.4,49.0,29.84,ESE,112,9.9,-999.0,79,-99.99,,,0.00,Acu-Link.com,2013-02-21 08:58:00,
2013-02-21 03:21:00,55.4,49.0,29.81,East,90,3.2,-999.0,79,-99.99,,,0.00,Acu-Link.com,2013-02-21 09:21:00,
2013-02-21 03:36:00,53.2,46.5,29.79,East,90,6.3,-999.0,78,-99.99,,,0.00,Acu-Link.com,2013-02-21 09:36:00,
2013-02-21 03:51:00,52.7,46.0,29.80,ESE,112,5.8,-999.0,78,-99.99,,,0.00,Acu-Link.com,2013-02-21 09:51:00,
2013-02-21 04:06:00,52.5,46.2,29.79,ESE,112,4.2,-999.0,79,-99.99,,,0.00,Acu-Link.com,2013-02-21 10:06:00,
2013-02-21 04:21:00,52.9,46.9,29.81,ENE,67,4.2,-999.0,80,-99.99,,,0.00,Acu-Link.com,2013-02-21 10:21:00,
2013-02-21 04:36:00,52.7,46.4,29.80,NE,45,4.2,-999.0,79,-99.99,,,0.00,Acu-Link.com,2013-02-21 10:36:00,
2013-02-21 04:51:00,52.3,46.0,29.80,East,90,4.7,-999.0,79,-99.99,,,0.00,Acu-Link.com,2013-02-21 10:51:00,
2013-02-21 05:07:00,52.2,45.9,29.82,ENE,67,4.7,-999.0,79,-99.99,,,0.00,Acu-Link.com,2013-02-21 11:07:00,
2013-02-21 05:22:00,52.3,46.0,29.81,NE,45,4.7,-999.0,79,-99.99,,,0.00,Acu-Link.com,2013-02-21 11:22:00,
2013-02-21 05:37:00,52.5,46.2,29.82,ESE,112,2.7,-999.0,79,-99.99,,,0.00,Acu-Link.com,2013-02-21 11:37:00,
2013-02-21 05:52:00,52.5,46.5,29.82,East,90,6.3,-999.0,80,-99.99,,,0.00,Acu-Link.com,2013-02-21 11:52:00,
2013-02-21 06:07:00,52.5,46.5,29.82,East,90,3.7,-999.0,80,-99.99,,,0.00,Acu-Link.com,2013-02-21 12:07:00,
2013-02-21 06:22:00,52.7,47.0,29.82,ESE,112,5.3,-999.0,81,-99.99,,,0.00,Acu-Link.com,2013-02-21 12:22:00,
2013-02-21 06:37:00,52.9,47.6,29.82,ESE,112,2.7,-999.0,82,-99.99,,,0.00,Acu-Link.com,2013-02-21 12:37:00,
2013-02-21 06:52:00,53.1,48.1,29.84,ENE,67,6.3,-999.0,83,-99.99,,,0.00,Acu-Link.com,2013-02-21 12:52:00,
2013-02-21 07:07:00,53.4,48.4,29.81,ESE,112,4.7,-999.0,83,-99.99,,,0.00,Acu-Link.com,2013-02-21 13:07:00,
2013-02-21 07:23:00,53.8,49.1,29.83,ESE,112,7.3,-999.0,84,-99.99,,,0.00,Acu-Link.com,2013-02-21 13:23:00,
2013-02-21 07:38:00,54.1,49.4,29.84,ENE,67,3.7,-999.0,84,-99.99,,,0.00,Acu-Link.com,2013-02-21 13:38:00,
2013-02-21 07:53:00,54.9,50.5,29.82,ESE,112,3.7,-999.0,85,-99.99,,,0.00,Acu-Link.com,2013-02-21 13:53:00,
2013-02-21 08:08:00,55.8,51.7,29.81,ESE,112,5.8,-999.0,86,-99.99,,,0.00,Acu-Link.com,2013-02-21 14:08:00,
2013-02-21 08:23:00,56.7,52.9,29.82,ESE,112,6.8,-999.0,87,-99.99,,,0.00,Acu-Link.com,2013-02-21 14:23:00,
2013-02-21 08:38:00,57.9,54.4,29.83,ENE,67,4.2,-999.0,88,-99.99,,,0.00,Acu-Link.com,2013-02-21 14:38:00,
2013-02-21 08:53:00,58.1,54.6,29.84,ESE,112,5.8,-999.0,88,-99.99,,,0.00,Acu-Link.com,2013-02-21 14:53:00,
2013-02-21 09:08:00,58.3,54.8,29.80,NNE,22,6.3,-999.0,88,-99.99,,,0.00,Acu-Link.com,2013-02-21 15:08:00,
2013-02-21 09:23:00,58.8,55.6,29.79,ENE,67,6.3,-999.0,89,-99.99,,,0.00,Acu-Link.com,2013-02-21 15:23:00,
2013-02-21 09:39:00,59.7,56.8,29.80,ESE,112,6.3,-999.0,90,-99.99,,,0.00,Acu-Link.com,2013-02-21 15:39:00,
2013-02-21 09:54:00,60.3,57.4,29.83,ESE,112,6.8,-999.0,90,-99.99,,,0.00,Acu-Link.com,2013-02-21 15:54:00,
2013-02-21 10:09:00,60.8,57.8,29.81,ESE,112,6.8,-999.0,90,-99.99,,,0.00,Acu-Link.com,2013-02-21 16:09:00,
2013-02-21 10:24:00,61.9,58.9,29.77,ESE,112,10.9,-999.0,90,-99.99,,,0.00,Acu-Link.com,2013-02-21 16:24:00,
2013-02-21 10:39:00,63.0,60.3,29.76,ESE,112,6.8,-999.0,91,-99.99,,,0.00,Acu-Link.com,2013-02-21 16:39:00,
2013-02-21 10:54:00,63.9,60.9,29.78,ESE,112,7.8,-999.0,90,-99.99,,,0.00,Acu-Link.com,2013-02-21 16:54:00,
2013-02-21 11:09:00,64.8,61.8,29.77,ESE,112,5.8,-999.0,90,-99.99,,,0.00,Acu-Link.com,2013-02-21 17:09:00,
2013-02-21 11:24:00,65.1,62.1,29.76,ESE,112,6.8,-999.0,90,-99.99,,,0.00,Acu-Link.com,2013-02-21 17:24:00,
2013-02-21 11:39:00,66.0,63.3,29.74,East,90,9.4,-999.0,91,-99.99,,,0.00,Acu-Link.com,2013-02-21 17:39:00,
2013-02-21 11:55:00,67.3,64.3,29.72,ESE,112,15.0,-999.0,90,-99.99,,,0.00,Acu-Link.com,2013-02-21 17:55:00,
2013-02-21 12:10:00,67.1,64.1,29.75,ESE,112,7.8,-999.0,90,-99.99,,,0.00,Acu-Link.com,2013-02-21 18:10:00,
2013-02-21 12:25:00,66.6,64.2,29.72,ESE,112,6.3,-999.0,92,-99.99,,,0.00,Acu-Link.com,2013-02-21 18:25:00,
2013-02-21 12:40:00,66.0,64.2,29.71,ESE,112,5.8,-999.0,94,-99.99,,,0.00,Acu-Link.com,2013-02-21 18:40:00,
2013-02-21 12:55:00,65.1,64.5,29.68,ESE,112,5.8,-999.0,98,-99.99,,,0.00,Acu-Link.com,2013-02-21 18:55:00,
2013-02-21 13:10:00,65.5,64.9,29.68,SE,135,5.8,-999.0,98,-99.99,,,0.01,Acu-Link.com,2013-02-21 19:10:00,
2013-02-21 13:25:00,65.1,64.5,29.65,ESE,112,3.7,-999.0,98,-99.99,,,0.06,Acu-Link.com,2013-02-21 19:25:00,
2013-02-21 13:40:00,65.5,64.9,29.66,ESE,112,6.8,-999.0,98,-99.99,,,0.06,Acu-Link.com,2013-02-21 19:40:00,
2013-02-21 13:55:00,65.5,64.9,29.60,ESE,112,4.2,-999.0,98,-99.99,,,0.07,Acu-Link.com,2013-02-21 19:55:00,
2013-02-21 14:11:00,65.3,64.7,29.64,East,90,3.7,-999.0,98,-99.99,,,0.11,Acu-Link.com,2013-02-21 20:11:00,
2013-02-21 14:26:00,65.3,64.7,29.61,ESE,112,2.7,-999.0,98,-99.99,,,0.23,Acu-Link.com,2013-02-21 20:26:00,
2013-02-21 14:41:00,65.3,64.7,29.60,South,180,0.0,-999.0,98,-99.99,,,0.23,Acu-Link.com,2013-02-21 20:41:00,
2013-02-21 14:56:00,67.8,67.2,29.64,ESE,112,4.2,-999.0,98,-99.99,,,0.23,Acu-Link.com,2013-02-21 20:56:00,
2013-02-21 15:11:00,68.9,68.3,29.63,SSE,157,5.8,-999.0,98,-99.99,,,0.23,Acu-Link.com,2013-02-21 21:11:00,
2013-02-21 15:26:00,70.0,69.4,29.61,SE,135,10.4,-999.0,98,-99.99,,,0.23,Acu-Link.com,2013-02-21 21:26:00,
2013-02-21 15:41:00,70.9,70.3,29.64,NNE,22,6.3,-999.0,98,-99.99,,,0.23,Acu-Link.com,2013-02-21 21:41:00,
2013-02-21 15:56:00,71.6,71.0,29.61,SE,135,4.7,-999.0,98,-99.99,,,0.23,Acu-Link.com,2013-02-21 21:56:00,
2013-02-21 16:11:00,72.0,71.4,29.60,SSW,202,7.8,-999.0,98,-99.99,,,0.23,Acu-Link.com,2013-02-21 22:11:00,
2013-02-21 16:27:00,72.3,71.7,29.63,SSE,157,14.0,-999.0,98,-99.99,,,0.24,Acu-Link.com,2013-02-21 22:27:00,
2013-02-21 16:42:00,72.7,72.1,29.62,WNW,292,7.8,-999.0,98,-99.99,,,0.24,Acu-Link.com,2013-02-21 22:42:00,
2013-02-21 16:57:00,72.3,71.7,29.61,South,180,3.7,-999.0,98,-99.99,,,0.24,Acu-Link.com,2013-02-21 22:57:00,
2013-02-21 17:12:00,71.6,71.0,29.62,SSE,157,9.4,-999.0,98,-99.99,,,0.24,Acu-Link.com,2013-02-21 23:12:00,
2013-02-21 17:27:00,71.2,70.6,29.62,South,180,3.7,-999.0,98,-99.99,,,0.32,Acu-Link.com,2013-02-21 23:27:00,
2013-02-21 17:42:00,70.9,70.3,29.62,South,180,5.8,-999.0,98,-99.99,,,0.33,Acu-Link.com,2013-02-21 23:42:00,
2013-02-21 17:57:00,71.1,70.5,29.62,ESE,112,5.3,-999.0,98,-99.99,,,0.33,Acu-Link.com,2013-02-21 23:57:00,
2013-02-21 18:12:00,71.4,70.8,29.64,SSW,202,5.3,-999.0,98,-99.99,,,0.33,Acu-Link.com,2013-02-22 00:12:00,
2013-02-21 18:27:00,71.4,70.8,29.65,NNE,22,5.8,-999.0,98,-99.99,,,0.33,Acu-Link.com,2013-02-22 00:27:00,
2013-02-21 18:43:00,71.6,71.0,29.67,SE,135,5.8,-999.0,98,-99.99,,,0.33,Acu-Link.com,2013-02-22 00:43:00,
2013-02-21 18:58:00,71.8,71.2,29.67,SSE,157,7.3,-999.0,98,-99.99,,,0.33,Acu-Link.com,2013-02-22 00:58:00,
2013-02-21 19:13:00,71.8,71.2,29.67,SSW,202,8.3,-999.0,98,-99.99,,,0.33,Acu-Link.com,2013-02-22 01:13:00,
2013-02-21 19:28:00,71.8,71.2,29.68,SW,225,10.9,-999.0,98,-99.99,,,0.33,Acu-Link.com,2013-02-22 01:28:00,
2013-02-21 19:43:00,71.8,71.2,29.65,SE,135,5.3,-999.0,98,-99.99,,,0.33,Acu-Link.com,2013-02-22 01:43:00,
2013-02-21 19:58:00,71.8,71.2,29.69,SW,225,5.8,-999.0,98,-99.99,,,0.33,Acu-Link.com,2013-02-22 01:58:00,
2013-02-21 20:13:00,71.6,71.0,29.69,West,270,5.8,-999.0,98,-99.99,,,0.33,Acu-Link.com,2013-02-22 02:13:00,
2013-02-21 20:28:00,71.6,71.0,29.67,SSW,202,6.8,-999.0,98,-99.99,,,0.33,Acu-Link.com,2013-02-22 02:28:00,
2013-02-21 20:43:00,71.6,71.0,29.66,WNW,292,16.6,-999.0,98,-99.99,,,0.33,Acu-Link.com,2013-02-22 02:43:00,
2013-02-21 20:59:00,71.8,71.2,29.66,SSW,202,5.3,-999.0,98,-99.99,,,0.33,Acu-Link.com,2013-02-22 02:59:00,
2013-02-21 21:14:00,71.8,71.2,29.71,SSW,202,7.3,-999.0,98,-99.99,,,0.33,Acu-Link.com,2013-02-22 03:14:00,
2013-02-21 21:29:00,72.0,71.4,29.69,South,180,8.9,-999.0,98,-99.99,,,0.33,Acu-Link.com,2013-02-22 03:29:00,
2013-02-21 21:44:00,72.0,71.4,29.68,East,90,5.3,-999.0,98,-99.99,,,0.33,Acu-Link.com,2013-02-22 03:44:00,
2013-02-21 21:59:00,71.8,71.2,29.67,SSE,157,4.7,-999.0,98,-99.99,,,0.33,Acu-Link.com,2013-02-22 03:59:00,
2013-02-21 22:14:00,71.8,71.2,29.71,SSW,202,7.3,-999.0,98,-99.99,,,0.33,Acu-Link.com,2013-02-22 04:14:00,
2013-02-21 22:29:00,71.8,71.2,29.72,SE,135,6.3,-999.0,98,-99.99,,,0.33,Acu-Link.com,2013-02-22 04:29:00,
2013-02-21 22:44:00,71.6,71.0,29.73,SSW,202,3.7,-999.0,98,-99.99,,,0.33,Acu-Link.com,2013-02-22 04:44:00,
2013-02-21 22:59:00,71.6,71.0,29.73,SSW,202,10.4,-999.0,98,-99.99,,,0.33,Acu-Link.com,2013-02-22 04:59:00,
2013-02-21 23:15:00,71.6,71.0,29.73,WSW,247,5.3,-999.0,98,-99.99,,,0.33,Acu-Link.com,2013-02-22 05:15:00,
2013-02-21 23:30:00,71.6,71.0,29.71,SSW,202,5.3,-999.0,98,-99.99,,,0.33,Acu-Link.com,2013-02-22 05:30:00,
2013-02-21 23:45:00,71.4,70.8,29.73,NW,315,2.2,-999.0,98,-99.99,,,0.33,Acu-Link.com,2013-02-22 05:45:00,